sensor_id;sensor_type;location;lat;lon;timestamp;pressure;altitude;pressure_sealevel;temperature;humidity
35878;BME280;21982;49.804;24.072;2023-01-27T02:59:50;97404.78;;;-2.14;74.63
35878;BME280;21982;49.804;24.072;2023-01-27T03:02:18;97427.88;;;-1.61;74.89
35878;BME280;21982;49.804;24.072;2023-01-27T03:04:56;97382.75;;;-1.37;74.69
35878;BME280;21982;49.804;24.072;2023-01-27T03:07:22;97341.19;;;-1.48;74.63
35878;BME280;21982;49.804;24.072;2023-01-27T03:09:47;97307.94;;;-1.43;74.78
35878;BME280;21982;49.804;24.072;2023-01-27T03:12:13;97353.16;;;-0.77;74.61
35878;BME280;21982;49.804;24.072;2023-01-27T03:14:45;97397.16;;;-0.40;74.32
35878;BME280;21982;49.804;24.072;2023-01-27T03:17:28;97397.66;;;-0.35;74.21
35878;BME280;21982;49.804;24.072;2023-01-27T03:20:13;97269.25;;;-1.12;73.98
35878;BME280;21982;49.804;24.072;2023-01-27T03:22:38;97403.53;;;-0.22;73.85
35878;BME280;21982;49.804;24.072;2023-01-27T03:25:04;96989.03;;;-2.84;73.58
35878;BME280;21982;49.804;24.072;2023-01-27T03:27:30;97003.75;;;-2.85;73.13
35878;BME280;21982;49.804;24.072;2023-01-27T03:29:56;97390.78;;;-0.25;73.96
35878;BME280;21982;49.804;24.072;2023-01-27T03:32:31;97404.22;;;0.03;73.66
35878;BME280;21982;49.804;24.072;2023-01-27T03:34:56;97382.97;;;-0.14;73.47
35878;BME280;21982;49.804;24.072;2023-01-27T03:37:25;97386.28;;;-0.12;73.97
35878;BME280;21982;49.804;24.072;2023-01-27T03:40:09;97266.19;;;-0.95;73.79
35878;BME280;21982;49.804;24.072;2023-01-27T03:42:54;97401.38;;;0.06;73.61
35878;BME280;21982;49.804;24.072;2023-01-27T03:45:38;97284.00;;;-0.68;73.49
35878;BME280;21982;49.804;24.072;2023-01-27T03:48:22;97408.72;;;0.12;73.56
35878;BME280;21982;49.804;24.072;2023-01-27T03:50:47;97409.44;;;0.14;73.53
35878;BME280;21982;49.804;24.072;2023-01-27T03:53:19;97372.78;;;-0.06;73.63
35878;BME280;21982;49.804;24.072;2023-01-27T03:55:45;96973.53;;;-2.62;72.78
35878;BME280;21982;49.804;24.072;2023-01-27T03:58:20;97405.88;;;0.26;73.09
35878;BME280;21982;49.804;24.072;2023-01-27T04:00:54;97401.38;;;0.28;73.67
35878;BME280;21982;49.804;24.072;2023-01-27T04:03:22;97403.72;;;0.31;73.04
35878;BME280;21982;49.804;24.072;2023-01-27T04:06:09;97402.66;;;0.33;73.28
35878;BME280;21982;49.804;24.072;2023-01-27T04:09:32;97391.41;;;0.33;72.65
35878;BME280;21982;49.804;24.072;2023-01-27T04:11:59;97343.94;;;-0.25;73.52
35878;BME280;21982;49.804;24.072;2023-01-27T04:14:33;97390.00;;;0.29;73.15
35878;BME280;21982;49.804;24.072;2023-01-27T04:17:09;97360.53;;;0.17;72.57
35878;BME280;21982;49.804;24.072;2023-01-27T04:19:35;97283.84;;;-0.33;73.21
35878;BME280;21982;49.804;24.072;2023-01-27T04:22:01;97145.47;;;-1.24;72.62
35878;BME280;21982;49.804;24.072;2023-01-27T04:24:27;97324.78;;;-0.24;72.75
35878;BME280;21982;49.804;24.072;2023-01-27T04:26:56;97396.75;;;0.31;73.18
35878;BME280;21982;49.804;24.072;2023-01-27T04:29:24;97393.31;;;0.31;72.88
35878;BME280;21982;49.804;24.072;2023-01-27T04:31:50;97314.72;;;-0.17;72.88
35878;BME280;21982;49.804;24.072;2023-01-27T04:34:16;97387.53;;;0.27;72.84
35878;BME280;21982;49.804;24.072;2023-01-27T04:36:41;97388.47;;;0.15;72.69
35878;BME280;21982;49.804;24.072;2023-01-27T04:39:07;97335.06;;;-0.11;72.55
35878;BME280;21982;49.804;24.072;2023-01-27T04:41:34;97231.69;;;-0.75;72.75
35878;BME280;21982;49.804;24.072;2023-01-27T04:44:00;97285.06;;;-0.37;72.75
35878;BME280;21982;49.804;24.072;2023-01-27T04:46:26;97366.13;;;0.13;72.81
35878;BME280;21982;49.804;24.072;2023-01-27T04:48:51;97333.97;;;-0.09;73.06
35878;BME280;21982;49.804;24.072;2023-01-27T04:51:18;97206.03;;;-0.90;72.39
35878;BME280;21982;49.804;24.072;2023-01-27T04:53:43;97295.13;;;-0.44;72.58
35878;BME280;21982;49.804;24.072;2023-01-27T04:56:29;97275.25;;;-0.45;72.73
35878;BME280;21982;49.804;24.072;2023-01-27T04:58:58;97423.75;;;0.30;72.74
35878;BME280;21982;49.804;24.072;2023-01-27T05:01:24;97395.22;;;0.29;72.91
35878;BME280;21982;49.804;24.072;2023-01-27T05:03:49;97397.34;;;0.24;72.40
35878;BME280;21982;49.804;24.072;2023-01-27T05:06:15;97388.13;;;0.20;72.80
35878;BME280;21982;49.804;24.072;2023-01-27T05:08:40;97417.34;;;0.23;72.86
35878;BME280;21982;49.804;24.072;2023-01-27T05:11:06;97006.00;;;-2.23;72.68
35878;BME280;21982;49.804;24.072;2023-01-27T05:13:32;97256.72;;;-0.62;72.57
35878;BME280;21982;49.804;24.072;2023-01-27T05:16:04;97399.25;;;0.22;72.60
35878;BME280;21982;49.804;24.072;2023-01-27T05:18:30;97403.03;;;0.18;72.46
35878;BME280;21982;49.804;24.072;2023-01-27T05:20:58;97378.31;;;0.01;72.92
35878;BME280;21982;49.804;24.072;2023-01-27T05:23:24;97375.88;;;-0.12;73.09
35878;BME280;21982;49.804;24.072;2023-01-27T05:26:11;97412.97;;;0.13;73.05
35878;BME280;21982;49.804;24.072;2023-01-27T05:28:37;97414.44;;;-0.06;73.04
35878;BME280;21982;49.804;24.072;2023-01-27T05:33:39;97368.88;;;-0.22;72.96
35878;BME280;21982;49.804;24.072;2023-01-27T05:36:07;96960.03;;;-2.89;73.12
35878;BME280;21982;49.804;24.072;2023-01-27T05:38:33;97350.09;;;-0.48;73.05
35878;BME280;21982;49.804;24.072;2023-01-27T05:41:02;97367.94;;;-0.21;73.04
35878;BME280;21982;49.804;24.072;2023-01-27T05:43:29;97417.94;;;0.05;73.14
35878;BME280;21982;49.804;24.072;2023-01-27T05:46:06;97392.53;;;-0.14;72.83
35878;BME280;21982;49.804;24.072;2023-01-27T05:48:34;97411.59;;;-0.03;73.13
35878;BME280;21982;49.804;24.072;2023-01-27T05:50:59;97322.19;;;-0.57;72.82
35878;BME280;21982;49.804;24.072;2023-01-27T05:53:26;97413.72;;;-0.08;73.19
35878;BME280;21982;49.804;24.072;2023-01-27T05:55:52;97413.25;;;-0.13;73.10
35878;BME280;21982;49.804;24.072;2023-01-27T05:58:18;97404.63;;;-0.13;73.34
35878;BME280;21982;49.804;24.072;2023-01-27T06:00:45;97397.28;;;-0.08;73.40
35878;BME280;21982;49.804;24.072;2023-01-27T06:03:11;97276.09;;;-0.67;73.20
35878;BME280;21982;49.804;24.072;2023-01-27T06:05:36;97213.72;;;-1.00;73.33
35878;BME280;21982;49.804;24.072;2023-01-27T06:08:01;96890.94;;;-2.78;72.74
35878;BME280;21982;49.804;24.072;2023-01-27T06:10:27;97403.72;;;0.31;72.66
35878;BME280;21982;49.804;24.072;2023-01-27T06:12:53;97246.78;;;-1.02;72.88
35878;BME280;21982;49.804;24.072;2023-01-27T06:15:18;97304.00;;;-0.46;72.77
35878;BME280;21982;49.804;24.072;2023-01-27T06:17:43;97397.38;;;0.02;72.69
35878;BME280;21982;49.804;24.072;2023-01-27T06:20:09;97356.13;;;-0.14;72.96
35878;BME280;21982;49.804;24.072;2023-01-27T06:22:35;97348.53;;;-0.17;72.91
35878;BME280;21982;49.804;24.072;2023-01-27T06:25:00;97373.50;;;-0.04;72.84
35878;BME280;21982;49.804;24.072;2023-01-27T06:27:25;97397.00;;;0.17;72.82
35878;BME280;21982;49.804;24.072;2023-01-27T06:29:51;97399.47;;;0.19;72.85
35878;BME280;21982;49.804;24.072;2023-01-27T06:32:16;97374.41;;;0.07;73.02
35878;BME280;21982;49.804;24.072;2023-01-27T06:34:41;97393.22;;;0.21;72.82
35878;BME280;21982;49.804;24.072;2023-01-27T06:37:07;97371.25;;;-0.08;72.33
35878;BME280;21982;49.804;24.072;2023-01-27T06:39:32;97360.03;;;-0.20;72.84
35878;BME280;21982;49.804;24.072;2023-01-27T06:41:57;97250.22;;;-0.90;72.64
35878;BME280;21982;49.804;24.072;2023-01-27T06:44:23;97426.72;;;0.04;72.53
35878;BME280;21982;49.804;24.072;2023-01-27T06:46:48;97424.09;;;0.04;72.58
35878;BME280;21982;49.804;24.072;2023-01-27T06:49:13;97420.94;;;0.00;72.36
35878;BME280;21982;49.804;24.072;2023-01-27T06:51:39;97432.66;;;-0.06;72.72
35878;BME280;21982;49.804;24.072;2023-01-27T06:54:04;97366.66;;;-0.49;72.42
35878;BME280;21982;49.804;24.072;2023-01-27T06:56:30;97408.63;;;-0.20;72.86
35878;BME280;21982;49.804;24.072;2023-01-27T06:58:55;97392.81;;;-0.40;72.64
35878;BME280;21982;49.804;24.072;2023-01-27T07:01:20;97370.91;;;-0.48;72.77
35878;BME280;21982;49.804;24.072;2023-01-27T07:03:46;97431.00;;;-0.07;72.68
35878;BME280;21982;49.804;24.072;2023-01-27T07:06:11;97399.66;;;-0.39;72.78
35878;BME280;21982;49.804;24.072;2023-01-27T07:08:39;97410.88;;;-0.16;72.85
35878;BME280;21982;49.804;24.072;2023-01-27T07:11:04;97448.25;;;0.06;72.95
35878;BME280;21982;49.804;24.072;2023-01-27T07:13:31;97365.56;;;-0.24;73.01
35878;BME280;21982;49.804;24.072;2023-01-27T07:15:56;97389.47;;;-0.08;72.87
35878;BME280;21982;49.804;24.072;2023-01-27T07:18:21;97334.22;;;-0.34;73.08
35878;BME280;21982;49.804;24.072;2023-01-27T07:20:47;97341.56;;;-0.17;73.06
35878;BME280;21982;49.804;24.072;2023-01-27T07:23:12;97417.94;;;0.27;72.69
35878;BME280;21982;49.804;24.072;2023-01-27T07:25:38;97417.69;;;0.30;72.81
35878;BME280;21982;49.804;24.072;2023-01-27T07:28:04;97420.91;;;0.33;73.01
35878;BME280;21982;49.804;24.072;2023-01-27T07:30:31;97382.09;;;0.08;72.46
35878;BME280;21982;49.804;24.072;2023-01-27T07:33:08;97426.16;;;0.54;72.48
35878;BME280;21982;49.804;24.072;2023-01-27T07:35:36;97411.94;;;0.58;72.39
35878;BME280;21982;49.804;24.072;2023-01-27T07:38:02;97420.75;;;0.78;72.51
35878;BME280;21982;49.804;24.072;2023-01-27T07:40:27;97422.84;;;0.84;72.37
35878;BME280;21982;49.804;24.072;2023-01-27T07:42:52;97384.22;;;0.57;72.29
35878;BME280;21982;49.804;24.072;2023-01-27T09:18:06;96926.19;;;-2.30;73.04
35878;BME280;21982;49.804;24.072;2023-01-27T09:20:31;97373.59;;;1.02;72.99
35878;BME280;21982;49.804;24.072;2023-01-27T09:22:58;97460.25;;;1.98;72.06
35878;BME280;21982;49.804;24.072;2023-01-27T09:25:24;97454.34;;;2.46;71.21
35878;BME280;21982;49.804;24.072;2023-01-27T09:27:53;97410.75;;;2.47;70.34
35878;BME280;21982;49.804;24.072;2023-01-27T09:30:19;97447.94;;;2.69;70.36
35878;BME280;21982;49.804;24.072;2023-01-27T09:32:46;97397.53;;;2.29;69.54
35878;BME280;21982;49.804;24.072;2023-01-27T09:35:12;97401.59;;;2.12;68.92
35878;BME280;21982;49.804;24.072;2023-01-27T09:37:59;97436.59;;;2.30;69.34
35878;BME280;21982;49.804;24.072;2023-01-27T09:51:39;97432.97;;;2.22;68.26
35878;BME280;21982;49.804;24.072;2023-01-27T09:54:08;97413.28;;;2.18;67.60
35878;BME280;21982;49.804;24.072;2023-01-27T10:00:00;97427.31;;;2.17;67.06
35878;BME280;21982;49.804;24.072;2023-01-27T10:05:00;97428.88;;;2.29;66.28
35878;BME280;21982;49.804;24.072;2023-01-27T10:12:55;97423.84;;;3.33;65.47
35878;BME280;21982;49.804;24.072;2023-01-27T10:28:59;97417.00;;;3.79;62.82
35878;BME280;21982;49.804;24.072;2023-01-27T10:31:46;97354.72;;;3.73;62.34
35878;BME280;21982;49.804;24.072;2023-01-27T10:34:45;97410.81;;;4.08;62.36
35878;BME280;21982;49.804;24.072;2023-01-27T10:37:32;97418.00;;;4.06;62.17
35878;BME280;21982;49.804;24.072;2023-01-27T10:40:11;97223.44;;;2.38;61.08
35878;BME280;21982;49.804;24.072;2023-01-27T10:45:27;97415.09;;;3.62;61.75
35878;BME280;21982;49.804;24.072;2023-01-27T10:47:57;97412.91;;;3.67;61.47
35878;BME280;21982;49.804;24.072;2023-01-27T10:50:27;97411.25;;;3.66;61.07
35878;BME280;21982;49.804;24.072;2023-01-27T10:53:10;97399.09;;;3.75;61.43
35878;BME280;21982;49.804;24.072;2023-01-27T10:58:43;97296.41;;;3.71;61.07
35878;BME280;21982;49.804;24.072;2023-01-27T11:01:12;97320.09;;;4.07;60.72
35878;BME280;21982;49.804;24.072;2023-01-27T11:03:43;97417.56;;;4.83;60.34
35878;BME280;21982;49.804;24.072;2023-01-27T11:06:16;97282.94;;;4.64;60.01
35878;BME280;21982;49.804;24.072;2023-01-27T11:08:48;97235.06;;;4.88;60.04
35878;BME280;21982;49.804;24.072;2023-01-27T11:11:20;97352.16;;;6.19;58.59
35878;BME280;21982;49.804;24.072;2023-01-27T15:20:37;97398.56;;;-0.58;68.57
35878;BME280;21982;49.804;24.072;2023-01-27T15:25:53;97395.09;;;0.19;68.61
35878;BME280;21982;49.804;24.072;2023-01-27T15:28:27;97205.56;;;-0.84;68.66
35878;BME280;21982;49.804;24.072;2023-01-27T15:31:23;97380.81;;;0.46;68.58
35878;BME280;21982;49.804;24.072;2023-01-27T15:36:58;97374.44;;;0.71;68.60
35878;BME280;21982;49.804;24.072;2023-01-27T15:39:23;97297.44;;;0.25;68.81
35878;BME280;21982;49.804;24.072;2023-01-27T15:44:38;97403.50;;;0.98;68.86
35878;BME280;21982;49.804;24.072;2023-01-27T15:47:20;97389.34;;;0.80;69.01
35878;BME280;21982;49.804;24.072;2023-01-27T15:52:40;97416.78;;;1.16;69.43
35878;BME280;21982;49.804;24.072;2023-01-27T15:55:32;97307.06;;;0.45;68.81
35878;BME280;21982;49.804;24.072;2023-01-27T16:00:57;97421.03;;;1.17;68.98
35878;BME280;21982;49.804;24.072;2023-01-27T16:03:36;97429.44;;;1.20;69.29
35878;BME280;21982;49.804;24.072;2023-01-27T16:06:08;97298.78;;;0.40;69.05
35878;BME280;21982;49.804;24.072;2023-01-27T16:08:52;97434.16;;;1.26;69.39
35878;BME280;21982;49.804;24.072;2023-01-27T16:19:22;97010.91;;;-1.42;69.36
35878;BME280;21982;49.804;24.072;2023-01-27T16:22:17;97430.69;;;1.05;69.92
35878;BME280;21982;49.804;24.072;2023-01-27T16:24:58;97301.69;;;0.26;69.26
35878;BME280;21982;49.804;24.072;2023-01-27T16:30:21;97431.97;;;1.11;69.53
35878;BME280;21982;49.804;24.072;2023-01-27T16:32:57;96822.97;;;-2.70;69.14
35878;BME280;21982;49.804;24.072;2023-01-27T16:35:27;97468.47;;;1.11;69.48
35878;BME280;21982;49.804;24.072;2023-01-27T16:40:32;97233.09;;;-0.16;69.76
35878;BME280;21982;49.804;24.072;2023-01-27T16:43:04;97119.47;;;-1.02;69.79
35878;BME280;21982;49.804;24.072;2023-01-27T16:45:51;97434.44;;;1.12;69.60
35878;BME280;21982;49.804;24.072;2023-01-27T16:48:43;96836.03;;;-2.49;69.16
35878;BME280;21982;49.804;24.072;2023-01-27T16:51:18;96699.22;;;-3.45;69.50
35878;BME280;21982;49.804;24.072;2023-01-27T16:59:06;97161.19;;;-0.60;69.64
35878;BME280;21982;49.804;24.072;2023-01-27T17:01:40;97498.56;;;1.15;69.76
35878;BME280;21982;49.804;24.072;2023-01-27T17:04:08;97462.31;;;1.12;69.81
35878;BME280;21982;49.804;24.072;2023-01-27T17:06:39;97447.75;;;1.09;69.95
35878;BME280;21982;49.804;24.072;2023-01-27T17:09:25;97369.31;;;0.59;69.71
35878;BME280;21982;49.804;24.072;2023-01-27T17:11:51;97448.44;;;0.90;70.14
35878;BME280;21982;49.804;24.072;2023-01-27T17:14:18;97326.81;;;0.16;70.16
35878;BME280;21982;49.804;24.072;2023-01-27T17:16:47;97012.81;;;-1.66;69.25
35878;BME280;21982;49.804;24.072;2023-01-27T17:19:21;97011.06;;;-1.65;69.64
35878;BME280;21982;49.804;24.072;2023-01-27T17:21:54;97453.28;;;1.16;69.85
35878;BME280;21982;49.804;24.072;2023-01-27T17:24:33;97444.56;;;1.06;69.99
35878;BME280;21982;49.804;24.072;2023-01-27T17:27:07;97456.09;;;1.24;69.62
35878;BME280;21982;49.804;24.072;2023-01-27T17:29:43;97099.91;;;-1.17;69.36
35878;BME280;21982;49.804;24.072;2023-01-27T17:32:22;97126.06;;;-0.98;69.46
35878;BME280;21982;49.804;24.072;2023-01-27T17:35:01;97462.41;;;1.42;69.62
35878;BME280;21982;49.804;24.072;2023-01-27T17:37:29;97316.66;;;0.45;69.24
35878;BME280;21982;49.804;24.072;2023-01-27T17:39:59;97448.34;;;1.33;69.65
35878;BME280;21982;49.804;24.072;2023-01-27T17:42:30;97202.66;;;-0.37;69.09
35878;BME280;21982;49.804;24.072;2023-01-27T17:45:26;97400.81;;;1.09;68.78
35878;BME280;21982;49.804;24.072;2023-01-27T17:47:52;97366.13;;;0.77;69.01
35878;BME280;21982;49.804;24.072;2023-01-27T17:50:23;97437.09;;;1.33;69.27
35878;BME280;21982;49.804;24.072;2023-01-27T17:52:53;97465.97;;;1.20;69.17
35878;BME280;21982;49.804;24.072;2023-01-27T17:55:21;97474.69;;;1.30;69.43
35878;BME280;21982;49.804;24.072;2023-01-27T17:57:49;97467.88;;;1.39;69.66
35878;BME280;21982;49.804;24.072;2023-01-27T18:00:26;97474.09;;;1.48;69.20
35878;BME280;21982;49.804;24.072;2023-01-27T18:05:30;97402.97;;;1.04;68.94
35878;BME280;21982;49.804;24.072;2023-01-27T18:07:56;97416.28;;;1.22;69.21
35878;BME280;21982;49.804;24.072;2023-01-27T18:15:48;97479.06;;;1.51;68.75
35878;BME280;21982;49.804;24.072;2023-01-27T18:26:17;97484.78;;;1.45;68.27
35878;BME280;21982;49.804;24.072;2023-01-27T18:28:44;97451.22;;;1.30;69.19
35878;BME280;21982;49.804;24.072;2023-01-27T18:31:22;97441.28;;;1.24;68.46
35878;BME280;21982;49.804;24.072;2023-01-27T18:34:14;97273.66;;;0.18;68.73
35878;BME280;21982;49.804;24.072;2023-01-27T18:37:35;97482.25;;;1.54;68.75
35878;BME280;21982;49.804;24.072;2023-01-27T18:39:38;97477.16;;;1.53;68.75
35878;BME280;21982;49.804;24.072;2023-01-27T18:42:18;97338.56;;;0.42;68.96
35878;BME280;21982;49.804;24.072;2023-01-27T18:44:47;97263.00;;;-0.11;68.83
35878;BME280;21982;49.804;24.072;2023-01-27T18:47:23;97479.94;;;1.19;68.93
35878;BME280;21982;49.804;24.072;2023-01-27T18:49:57;97482.09;;;1.14;69.02
35878;BME280;21982;49.804;24.072;2023-01-27T18:52:23;97490.06;;;1.13;69.25
35878;BME280;21982;49.804;24.072;2023-01-27T18:54:54;97156.59;;;-1.11;69.30
35878;BME280;21982;49.804;24.072;2023-01-27T18:57:19;97490.06;;;1.13;69.37
35878;BME280;21982;49.804;24.072;2023-01-27T18:59:44;97425.84;;;0.80;69.20
35878;BME280;21982;49.804;24.072;2023-01-27T19:02:14;97477.63;;;1.05;69.46
35878;BME280;21982;49.804;24.072;2023-01-27T19:04:43;97491.38;;;1.07;69.28
35878;BME280;21982;49.804;24.072;2023-01-27T19:07:13;97494.38;;;1.03;69.58
35878;BME280;21982;49.804;24.072;2023-01-27T19:09:40;97448.75;;;0.65;69.82
35878;BME280;21982;49.804;24.072;2023-01-27T19:12:05;97392.38;;;0.21;69.86
35878;BME280;21982;49.804;24.072;2023-01-27T19:14:31;97504.72;;;0.93;70.33
35878;BME280;21982;49.804;24.072;2023-01-27T19:16:59;97499.13;;;0.97;69.99
35878;BME280;21982;49.804;24.072;2023-01-27T19:19:24;97340.81;;;0.04;70.30
35878;BME280;21982;49.804;24.072;2023-01-27T19:21:50;97393.81;;;0.03;70.03
35878;BME280;21982;49.804;24.072;2023-01-27T19:24:17;97396.88;;;0.30;70.30
35878;BME280;21982;49.804;24.072;2023-01-27T19:26:43;97364.00;;;0.07;69.87
35878;BME280;21982;49.804;24.072;2023-01-27T19:29:09;97499.88;;;0.88;70.07
35878;BME280;21982;49.804;24.072;2023-01-27T19:31:35;97361.38;;;0.07;70.30
35878;BME280;21982;49.804;24.072;2023-01-27T19:34:00;97384.00;;;0.06;69.91
35878;BME280;21982;49.804;24.072;2023-01-27T19:36:29;97352.81;;;-0.16;70.07
35878;BME280;21982;49.804;24.072;2023-01-27T19:39:00;97255.31;;;-0.89;70.15
35878;BME280;21982;49.804;24.072;2023-01-27T19:41:30;97494.91;;;0.74;70.63
35878;BME280;21982;49.804;24.072;2023-01-27T19:43:55;97495.50;;;0.78;70.72
35878;BME280;21982;49.804;24.072;2023-01-27T19:46:21;97420.50;;;0.38;70.39
35878;BME280;21982;49.804;24.072;2023-01-27T19:48:48;97504.72;;;0.93;70.77
35878;BME280;21982;49.804;24.072;2023-01-27T19:51:14;97369.91;;;0.09;70.64
35878;BME280;21982;49.804;24.072;2023-01-27T19:53:39;96831.97;;;-3.31;70.36
35878;BME280;21982;49.804;24.072;2023-01-27T19:56:24;97475.06;;;0.62;70.29
35878;BME280;21982;49.804;24.072;2023-01-27T19:58:53;97373.81;;;0.03;70.29
35878;BME280;21982;49.804;24.072;2023-01-27T20:01:25;97144.31;;;-1.43;70.23
35878;BME280;21982;49.804;24.072;2023-01-27T20:04:01;96909.94;;;-3.01;70.08
35878;BME280;21982;49.804;24.072;2023-01-27T20:06:28;97149.38;;;-1.30;70.44
35878;BME280;21982;49.804;24.072;2023-01-27T20:08:56;97341.69;;;-0.29;70.75
35878;BME280;21982;49.804;24.072;2023-01-27T20:16:39;97385.19;;;0.02;70.57
35878;BME280;21982;49.804;24.072;2023-01-27T20:19:05;97497.41;;;0.76;70.23
35878;BME280;21982;49.804;24.072;2023-01-27T20:21:30;97510.78;;;0.82;71.00
35878;BME280;21982;49.804;24.072;2023-01-27T20:24:00;97457.88;;;0.59;70.43
35878;BME280;21982;49.804;24.072;2023-01-27T20:26:26;97524.63;;;0.94;70.51
35878;BME280;21982;49.804;24.072;2023-01-27T20:28:53;97257.41;;;-0.60;70.68
35878;BME280;21982;49.804;24.072;2023-01-27T20:31:20;97359.72;;;0.17;70.25
35878;BME280;21982;49.804;24.072;2023-01-27T20:33:48;97506.06;;;1.08;70.20
35878;BME280;21982;49.804;24.072;2023-01-27T20:36:18;97502.25;;;1.12;70.69
35878;BME280;21982;49.804;24.072;2023-01-27T20:38:44;97395.34;;;0.27;70.16
35878;BME280;21982;49.804;24.072;2023-01-27T20:41:13;97367.66;;;0.15;70.14
35878;BME280;21982;49.804;24.072;2023-01-27T20:43:39;97075.84;;;-1.75;70.10
35878;BME280;21982;49.804;24.072;2023-01-27T20:46:07;97385.41;;;0.10;70.70
35878;BME280;21982;49.804;24.072;2023-01-27T20:48:33;97523.13;;;1.12;70.77
35878;BME280;21982;49.804;24.072;2023-01-27T20:51:04;97256.69;;;-0.40;70.12
35878;BME280;21982;49.804;24.072;2023-01-27T20:53:31;97505.31;;;1.17;70.26
35878;BME280;21982;49.804;24.072;2023-01-27T20:56:01;97438.47;;;0.63;70.55
35878;BME280;21982;49.804;24.072;2023-01-27T20:58:27;97512.31;;;1.17;70.90
35878;BME280;21982;49.804;24.072;2023-01-27T21:01:02;97521.69;;;1.19;70.70
35878;BME280;21982;49.804;24.072;2023-01-27T21:03:28;97343.50;;;0.13;70.80
35878;BME280;21982;49.804;24.072;2023-01-27T21:05:53;97504.88;;;1.12;70.75
35878;BME280;21982;49.804;24.072;2023-01-27T21:08:19;97505.56;;;1.14;70.53
35878;BME280;21982;49.804;24.072;2023-01-27T21:10:44;97106.88;;;-1.74;70.33
35878;BME280;21982;49.804;24.072;2023-01-27T21:13:09;97468.00;;;0.85;70.54
35878;BME280;21982;49.804;24.072;2023-01-27T21:15:35;97511.25;;;1.19;71.25
35878;BME280;21982;49.804;24.072;2023-01-27T21:18:00;97368.41;;;0.38;70.62
35878;BME280;21982;49.804;24.072;2023-01-27T21:20:26;97519.50;;;1.36;70.98
35878;BME280;21982;49.804;24.072;2023-01-27T21:22:51;97339.56;;;0.30;71.08
35878;BME280;21982;49.804;24.072;2023-01-27T21:25:16;97426.00;;;0.99;71.08
35878;BME280;21982;49.804;24.072;2023-01-27T21:27:42;97438.50;;;1.05;70.72
35878;BME280;21982;49.804;24.072;2023-01-27T21:30:09;97474.91;;;1.39;70.14
35878;BME280;21982;49.804;24.072;2023-01-27T21:32:36;97404.34;;;0.87;70.27
35878;BME280;21982;49.804;24.072;2023-01-27T21:35:01;97508.63;;;1.72;70.65
35878;BME280;21982;49.804;24.072;2023-01-27T21:37:27;97498.63;;;1.56;70.56
35878;BME280;21982;49.804;24.072;2023-01-27T21:39:53;97514.41;;;1.76;70.42
35878;BME280;21982;49.804;24.072;2023-01-27T21:42:18;97478.25;;;1.50;70.22
35878;BME280;21982;49.804;24.072;2023-01-27T21:45:02;97479.06;;;1.51;70.14
35878;BME280;21982;49.804;24.072;2023-01-27T21:47:37;97521.28;;;1.77;70.18
35878;BME280;21982;49.804;24.072;2023-01-27T21:50:03;97521.53;;;1.74;70.19
35878;BME280;21982;49.804;24.072;2023-01-27T21:52:30;97511.66;;;1.77;70.57
35878;BME280;21982;49.804;24.072;2023-01-27T21:54:56;97414.88;;;1.18;70.08
35878;BME280;21982;49.804;24.072;2023-01-27T21:57:21;97378.50;;;0.95;69.93
35878;BME280;21982;49.804;24.072;2023-01-27T21:59:46;97344.06;;;0.81;70.31
35878;BME280;21982;49.804;24.072;2023-01-27T22:02:13;97390.63;;;1.06;69.75
35878;BME280;21982;49.804;24.072;2023-01-27T22:04:42;97416.84;;;1.25;69.79
35878;BME280;21982;49.804;24.072;2023-01-27T22:07:09;97511.66;;;1.77;70.31
35878;BME280;21982;49.804;24.072;2023-01-27T22:09:38;97513.56;;;1.75;69.88
35878;BME280;21982;49.804;24.072;2023-01-27T22:12:05;97516.72;;;1.69;70.01
35878;BME280;21982;49.804;24.072;2023-01-27T22:14:31;97549.13;;;1.66;70.26
35878;BME280;21982;49.804;24.072;2023-01-27T22:16:57;97273.41;;;0.21;70.45
35878;BME280;21982;49.804;24.072;2023-01-27T22:19:22;97329.41;;;0.27;70.36
35878;BME280;21982;49.804;24.072;2023-01-27T22:21:48;97513.44;;;1.56;70.28
35878;BME280;21982;49.804;24.072;2023-01-27T22:24:13;97201.03;;;-0.49;70.03
35878;BME280;21982;49.804;24.072;2023-01-27T22:26:38;97379.94;;;0.68;70.27
35878;BME280;21982;49.804;24.072;2023-01-27T22:29:04;97189.09;;;-0.62;70.38
35878;BME280;21982;49.804;24.072;2023-01-27T22:31:29;97228.25;;;-0.21;70.58
35878;BME280;21982;49.804;24.072;2023-01-27T22:33:55;97084.16;;;-1.05;69.79
35878;BME280;21982;49.804;24.072;2023-01-27T22:36:21;97282.81;;;0.13;70.05
35878;BME280;21982;49.804;24.072;2023-01-27T22:38:46;97244.69;;;-0.20;70.17
35878;BME280;21982;49.804;24.072;2023-01-27T22:41:12;96945.41;;;-2.11;70.24
35878;BME280;21982;49.804;24.072;2023-01-27T22:43:37;97293.91;;;0.15;70.54
35878;BME280;21982;49.804;24.072;2023-01-27T22:46:03;97362.94;;;0.52;70.34
35878;BME280;21982;49.804;24.072;2023-01-27T22:48:29;97436.69;;;0.96;71.06
35878;BME280;21982;49.804;24.072;2023-01-27T22:50:55;97427.31;;;0.93;70.97
35878;BME280;21982;49.804;24.072;2023-01-27T22:56:23;97417.84;;;0.92;70.33
35878;BME280;21982;49.804;24.072;2023-01-27T22:58:50;97487.13;;;1.38;70.37
35878;BME280;21982;49.804;24.072;2023-01-27T23:01:15;97501.41;;;1.44;71.01
35878;BME280;21982;49.804;24.072;2023-01-27T23:03:41;97485.94;;;1.52;70.61
35878;BME280;21982;49.804;24.072;2023-01-27T23:06:07;97382.47;;;0.79;70.52
35878;BME280;21982;49.804;24.072;2023-01-27T23:08:33;97383.72;;;0.95;70.20
35878;BME280;21982;49.804;24.072;2023-01-27T23:11:03;97250.03;;;0.10;70.49
35878;BME280;21982;49.804;24.072;2023-01-27T23:13:30;97528.03;;;1.58;70.51
35878;BME280;21982;49.804;24.072;2023-01-27T23:15:56;97491.66;;;1.46;70.71
35878;BME280;21982;49.804;24.072;2023-01-27T23:18:22;97168.06;;;-0.59;70.33
35878;BME280;21982;49.804;24.072;2023-01-27T23:20:48;97467.13;;;1.27;70.52
35878;BME280;21982;49.804;24.072;2023-01-27T23:23:14;97356.28;;;0.59;70.92
35878;BME280;21982;49.804;24.072;2023-01-27T23:25:42;97509.56;;;1.50;71.02
35878;BME280;21982;49.804;24.072;2023-01-27T23:28:16;97370.13;;;0.81;70.97
35878;BME280;21982;49.804;24.072;2023-01-27T23:30:45;97420.34;;;1.15;71.09